createdAt,value
2018-02-23T00:00:25.825Z,18.80
2018-02-23T00:01:25.837Z,19.20
2018-02-23T00:02:25.837Z,22.30
2018-02-23T00:03:25.845Z,19.60
2018-02-23T00:04:25.856Z,21.20
2018-02-23T00:05:25.864Z,19.20
2018-02-23T00:06:25.877Z,20.50
2018-02-23T00:07:25.883Z,20.50
2018-02-23T00:08:25.894Z,21.00
2018-02-23T00:09:25.902Z,23.10
2018-02-23T00:10:25.912Z,21.50
2018-02-23T00:11:25.922Z,20.10
2018-02-23T00:12:25.937Z,21.40
2018-02-23T00:13:25.939Z,19.20
2018-02-23T00:14:25.950Z,21.70
2018-02-23T00:15:25.963Z,19.40
2018-02-23T00:16:25.976Z,19.90
2018-02-23T00:17:25.977Z,23.00
2018-02-23T00:18:25.989Z,21.30
2018-02-23T00:19:26.003Z,19.90
2018-02-23T00:20:26.113Z,19.40
2018-02-23T00:21:26.024Z,19.10
2018-02-23T00:22:26.028Z,20.10
2018-02-23T00:23:26.038Z,20.70
2018-02-23T00:24:26.046Z,21.90
2018-02-23T00:25:26.058Z,23.40
2018-02-23T00:26:26.086Z,19.60
2018-02-23T00:27:26.077Z,21.00
2018-02-23T00:28:26.083Z,21.10
2018-02-23T00:29:26.093Z,23.30
2018-02-23T00:30:26.104Z,19.90
2018-02-23T00:31:26.113Z,21.10
2018-02-23T00:32:26.127Z,21.00
2018-02-23T00:33:26.134Z,21.10
2018-02-23T00:34:26.146Z,21.10
2018-02-23T00:35:26.151Z,21.30
2018-02-23T00:36:26.160Z,20.80
2018-02-23T00:37:26.198Z,22.20
2018-02-23T00:38:26.180Z,21.50
2018-02-23T00:39:26.191Z,20.60
2018-02-23T00:40:26.221Z,22.00
2018-02-23T00:41:26.207Z,22.30
2018-02-23T00:42:26.218Z,22.80
2018-02-23T00:43:26.228Z,22.70
2018-02-23T00:44:26.238Z,23.80
2018-02-23T00:45:26.249Z,21.30
2018-02-23T00:46:26.257Z,25.10
2018-02-23T00:47:26.268Z,21.10
2018-02-23T00:48:26.276Z,22.30
2018-02-23T00:49:26.285Z,22.50
2018-02-23T00:50:26.294Z,25.40
2018-02-23T00:51:26.307Z,24.10
2018-02-23T00:52:26.317Z,22.20
2018-02-23T00:53:26.326Z,22.60
2018-02-23T00:54:26.334Z,25.80
2018-02-23T00:55:26.358Z,22.90
2018-02-23T00:56:26.361Z,23.50
2018-02-23T00:57:26.365Z,22.90
2018-02-23T00:58:26.377Z,24.60
2018-02-23T00:59:26.383Z,23.80
2018-02-23T01:00:26.391Z,24.30
2018-02-23T01:01:26.414Z,25.10
2018-02-23T01:02:26.410Z,23.70
2018-02-23T01:03:26.421Z,22.70
2018-02-23T01:04:26.436Z,24.60
2018-02-23T01:05:26.478Z,24.60
2018-02-23T01:06:26.450Z,23.40
2018-02-23T01:07:26.458Z,23.50
2018-02-23T01:08:26.469Z,22.60
2018-02-23T01:09:26.478Z,23.90
2018-02-23T01:10:26.492Z,24.10
2018-02-23T01:11:26.498Z,22.90
2018-02-23T01:12:26.507Z,24.60
2018-02-23T01:13:26.514Z,24.80
2018-02-23T01:14:26.525Z,22.30
2018-02-23T01:15:26.535Z,26.50
2018-02-23T01:16:26.549Z,24.00
2018-02-23T01:17:26.554Z,25.50
2018-02-23T01:18:26.564Z,24.30
2018-02-23T01:19:26.574Z,23.80
2018-02-23T01:20:26.583Z,26.00
2018-02-23T01:21:26.597Z,26.10
2018-02-23T01:22:26.603Z,26.70
2018-02-23T01:23:26.618Z,26.30
2018-02-23T01:24:26.621Z,24.50
2018-02-23T01:25:26.630Z,25.90
2018-02-23T01:26:26.644Z,27.70
2018-02-23T01:27:26.655Z,26.40
2018-02-23T01:28:26.660Z,26.60
2018-02-23T01:29:26.668Z,24.80
2018-02-23T01:30:26.684Z,25.80
2018-02-23T01:31:26.687Z,26.00
2018-02-23T01:32:26.700Z,27.80
2018-02-23T01:33:26.708Z,27.80
2018-02-23T01:34:26.716Z,27.30
2018-02-23T01:35:26.729Z,28.80
2018-02-23T01:36:26.739Z,26.10
2018-02-23T01:37:26.746Z,28.10
2018-02-23T01:38:26.755Z,28.40
2018-02-23T01:39:26.766Z,27.20
2018-02-23T01:40:26.777Z,26.50
2018-02-23T01:41:26.785Z,26.60
2018-02-23T01:42:26.796Z,28.50
2018-02-23T01:43:26.804Z,29.10
2018-02-23T01:44:26.913Z,29.10
2018-02-23T01:45:26.827Z,29.40
2018-02-23T01:46:26.834Z,26.50
2018-02-23T01:47:26.895Z,27.20
2018-02-23T01:48:26.851Z,29.20
2018-02-23T01:49:26.862Z,28.90
2018-02-23T01:50:26.872Z,28.80
2018-02-23T01:51:26.880Z,27.80
2018-02-23T01:52:26.891Z,25.50
2018-02-23T01:53:26.905Z,26.70
2018-02-23T01:54:26.908Z,28.80
2018-02-23T01:55:26.920Z,29.20
2018-02-23T01:56:26.932Z,27.30
2018-02-23T01:57:26.940Z,29.20
2018-02-23T01:58:26.949Z,31.40
2018-02-23T01:59:26.957Z,27.40
2018-02-23T02:00:26.968Z,27.90
2018-02-23T02:01:26.982Z,29.60
2018-02-23T02:02:26.986Z,29.00
2018-02-23T02:03:26.997Z,29.80
2018-02-23T02:04:27.005Z,27.80
2018-02-23T02:05:27.015Z,29.10
2018-02-23T02:06:27.025Z,32.00
2018-02-23T02:07:27.037Z,29.90
2018-02-23T02:08:27.044Z,29.70
2018-02-23T02:09:27.056Z,28.90
2018-02-23T02:10:27.063Z,31.10
2018-02-23T02:11:27.075Z,28.90
2018-02-23T02:12:27.085Z,30.90
2018-02-23T02:13:27.092Z,29.80
2018-02-23T02:14:27.106Z,31.00
2018-02-23T02:15:27.112Z,29.20
2018-02-23T02:16:27.125Z,32.80
2018-02-23T02:17:27.131Z,29.80
2018-02-23T02:18:27.140Z,31.50
2018-02-23T02:19:27.155Z,31.20
2018-02-23T02:20:27.167Z,28.70
2018-02-23T02:21:27.169Z,31.40
2018-02-23T02:22:27.180Z,31.60
2018-02-23T02:23:27.192Z,30.30
2018-02-23T02:24:27.199Z,31.30
2018-02-23T02:25:27.213Z,30.00
2018-02-23T02:26:27.222Z,33.50
2018-02-23T02:27:27.227Z,31.60
2018-02-23T02:28:27.238Z,32.90
2018-02-23T02:29:27.250Z,33.30
2018-02-23T02:30:27.255Z,34.40
2018-02-23T02:31:27.266Z,33.30
2018-02-23T02:32:27.276Z,30.50
2018-02-23T02:33:27.290Z,32.80
2018-02-23T02:34:27.301Z,33.20
2018-02-23T02:35:27.310Z,30.60
2018-02-23T02:36:27.315Z,35.10
2018-02-23T02:37:27.354Z,31.80
2018-02-23T02:38:27.340Z,32.70
2018-02-23T02:39:27.355Z,33.60
2018-02-23T02:40:27.363Z,33.20
2018-02-23T02:41:27.361Z,33.80
2018-02-23T02:42:27.376Z,30.40
2018-02-23T02:43:27.382Z,33.10
2018-02-23T02:44:27.397Z,34.10
2018-02-23T02:45:27.399Z,32.70
2018-02-23T02:46:27.412Z,35.10
2018-02-23T02:47:27.420Z,35.20
2018-02-23T02:48:27.502Z,35.30
2018-02-23T02:49:27.438Z,34.00
2018-02-23T02:50:27.448Z,37.40
2018-02-23T02:51:27.459Z,35.50
2018-02-23T02:52:27.468Z,34.70
2018-02-23T02:53:27.476Z,35.70
2018-02-23T02:54:27.488Z,34.30
2018-02-23T02:55:27.510Z,31.90
2018-02-23T02:56:27.507Z,35.00
2018-02-23T02:57:27.515Z,36.50
2018-02-23T02:58:27.527Z,36.20
2018-02-23T02:59:27.535Z,34.80
2018-02-23T03:00:27.543Z,35.90
2018-02-23T03:01:27.553Z,35.40
2018-02-23T03:02:27.566Z,35.20
2018-02-23T03:03:27.572Z,35.70
2018-02-23T03:04:27.584Z,39.10
2018-02-23T03:05:27.593Z,34.60
2018-02-23T03:06:27.603Z,34.30
2018-02-23T03:07:27.615Z,36.10
2018-02-23T03:08:27.632Z,36.60
2018-02-23T03:09:27.629Z,34.80
2018-02-23T03:10:27.638Z,35.60
2018-02-23T03:11:27.655Z,37.70
2018-02-23T03:12:27.658Z,35.80
2018-02-23T03:13:27.732Z,35.40
2018-02-23T03:14:27.679Z,38.50
2018-02-23T03:15:27.691Z,38.30
2018-02-23T03:16:27.696Z,36.70
2018-02-23T03:17:27.706Z,37.00
2018-02-23T03:18:27.714Z,39.00
2018-02-23T03:19:27.726Z,40.50
2018-02-23T03:20:27.742Z,38.30
2018-02-23T03:21:27.748Z,37.50
2018-02-23T03:22:27.763Z,38.70
2018-02-23T03:23:27.766Z,38.80
2018-02-23T03:24:27.774Z,39.40
2018-02-23T03:25:27.783Z,38.10
2018-02-23T03:26:27.791Z,40.70
2018-02-23T03:27:27.806Z,38.40
2018-02-23T03:28:27.816Z,39.60
2018-02-23T03:29:27.821Z,38.90
2018-02-23T03:30:27.835Z,41.30
2018-02-23T03:31:27.841Z,39.90
2018-02-23T03:32:27.850Z,41.10
2018-02-23T03:33:27.865Z,41.90
2018-02-23T03:34:27.906Z,40.80
2018-02-23T03:35:27.879Z,39.70
2018-02-23T03:36:27.891Z,40.20
2018-02-23T03:37:27.894Z,40.70
2018-02-23T03:38:27.907Z,42.20
2018-02-23T03:39:27.913Z,40.30
2018-02-23T03:40:27.930Z,40.70
2018-02-23T03:41:27.932Z,42.10
2018-02-23T03:42:27.944Z,41.90
2018-02-23T03:43:28.052Z,44.30
2018-02-23T03:44:27.965Z,40.90
2018-02-23T03:45:27.973Z,42.60
2018-02-23T03:46:27.996Z,41.90
2018-02-23T03:47:27.992Z,40.80
2018-02-23T03:48:28.013Z,41.50
2018-02-23T03:49:28.012Z,41.30
2018-02-23T03:50:28.018Z,43.00
2018-02-23T03:51:28.028Z,42.90
2018-02-23T03:52:28.037Z,43.60
2018-02-23T03:53:28.054Z,40.80
2018-02-23T03:54:28.058Z,41.30
2018-02-23T03:55:28.064Z,44.00
2018-02-23T03:56:28.073Z,45.20
2018-02-23T03:57:28.089Z,43.50
2018-02-23T03:58:28.092Z,42.40
2018-02-23T03:59:28.201Z,43.30
2018-02-23T04:00:28.110Z,43.20
2018-02-23T04:01:28.122Z,46.60
2018-02-23T04:02:28.131Z,46.20
2018-02-23T04:03:28.138Z,44.10
2018-02-23T04:04:28.152Z,44.40
2018-02-23T04:05:28.156Z,46.20
2018-02-23T04:06:28.169Z,45.50
2018-02-23T04:07:28.177Z,46.00
2018-02-23T04:08:28.192Z,45.50
2018-02-23T04:09:28.193Z,45.50
2018-02-23T04:10:28.205Z,46.60
2018-02-23T04:11:28.218Z,47.30
2018-02-23T04:12:28.224Z,44.10
2018-02-23T04:13:28.231Z,43.50
2018-02-23T04:14:28.239Z,43.90
2018-02-23T04:15:28.275Z,46.70
2018-02-23T04:16:28.260Z,44.60
2018-02-23T04:17:28.277Z,48.10
2018-02-23T04:18:28.274Z,50.60
2018-02-23T04:19:28.287Z,46.70
2018-02-23T04:20:28.296Z,44.90
2018-02-23T04:21:28.303Z,46.90
2018-02-23T04:22:28.312Z,47.30
2018-02-23T04:23:28.326Z,45.50
2018-02-23T04:24:28.333Z,45.40
2018-02-23T04:25:28.345Z,50.00
2018-02-23T04:26:28.354Z,45.90
2018-02-23T04:27:28.366Z,47.80
2018-02-23T04:28:28.366Z,46.70
2018-02-23T04:29:28.378Z,45.80
2018-02-23T04:30:28.397Z,44.10
2018-02-23T04:31:28.394Z,43.80
2018-02-23T04:32:28.405Z,44.70
2018-02-23T04:33:28.411Z,44.80
2018-02-23T04:34:28.424Z,45.10
2018-02-23T04:35:28.430Z,45.80
2018-02-23T04:36:28.446Z,48.30
2018-02-23T04:37:28.448Z,48.50
2018-02-23T04:38:28.460Z,46.60
2018-02-23T04:39:28.469Z,47.20
2018-02-23T04:40:28.476Z,43.80
2018-02-23T04:41:28.493Z,46.40
2018-02-23T04:42:28.497Z,44.80
2018-02-23T04:43:28.504Z,45.40
2018-02-23T04:44:28.522Z,44.30
2018-02-23T04:45:28.523Z,45.70
2018-02-23T04:46:28.535Z,43.30
2018-02-23T04:47:28.541Z,44.80
2018-02-23T04:48:28.551Z,47.90
2018-02-23T04:49:28.555Z,45.90
2018-02-23T04:50:28.590Z,46.80
2018-02-23T04:51:28.589Z,46.30
2018-02-23T04:52:28.592Z,46.50
2018-02-23T04:53:28.596Z,48.10
2018-02-23T04:54:28.604Z,47.90
2018-02-23T04:55:28.628Z,45.60
2018-02-23T04:56:28.643Z,42.50
2018-02-23T04:57:28.631Z,48.40
2018-02-23T04:58:28.638Z,44.00
2018-02-23T04:59:28.646Z,43.80
2018-02-23T05:00:28.655Z,44.90
2018-02-23T05:01:28.664Z,46.00
2018-02-23T05:02:28.733Z,47.20
2018-02-23T05:03:28.684Z,46.50
2018-02-23T05:04:28.692Z,46.30
2018-02-23T05:05:28.703Z,47.20
2018-02-23T05:06:28.723Z,45.70
2018-02-23T05:07:28.721Z,45.70
2018-02-23T05:08:28.730Z,45.60
2018-02-23T05:09:28.737Z,43.90
2018-02-23T05:10:28.751Z,44.80
2018-02-23T05:11:28.759Z,46.80
2018-02-23T05:12:28.771Z,46.00
2018-02-23T05:13:28.774Z,44.80
2018-02-23T05:14:28.783Z,45.10
2018-02-23T05:15:28.798Z,47.00
2018-02-23T05:16:28.806Z,46.10
2018-02-23T05:17:28.813Z,43.70
2018-02-23T05:18:28.817Z,45.00
2018-02-23T05:19:28.829Z,44.60
2018-02-23T05:20:28.835Z,46.20
2018-02-23T05:21:28.854Z,45.90
2018-02-23T05:22:28.876Z,44.60
2018-02-23T05:23:28.861Z,45.00
2018-02-23T05:24:28.881Z,46.90
2018-02-23T05:25:28.883Z,47.30
2018-02-23T05:26:28.888Z,47.90
2018-02-23T05:27:28.903Z,45.30
2018-02-23T05:28:28.913Z,45.10
2018-02-23T05:29:28.919Z,46.30
2018-02-23T05:30:28.928Z,42.10
2018-02-23T05:31:28.938Z,45.90
2018-02-23T05:32:28.941Z,45.30
2018-02-23T05:33:28.947Z,44.50
2018-02-23T05:34:28.957Z,43.80
2018-02-23T05:35:28.968Z,45.90
2018-02-23T05:36:29.076Z,43.60
2018-02-23T05:37:28.984Z,44.40
2018-02-23T05:38:28.997Z,44.60
2018-02-23T05:39:29.003Z,42.30
2018-02-23T05:40:29.016Z,43.80
2018-02-23T05:41:29.018Z,44.20
2018-02-23T05:42:29.026Z,43.90
2018-02-23T05:43:29.037Z,45.70
2018-02-23T05:44:29.049Z,42.80
2018-02-23T05:45:29.051Z,44.50
2018-02-23T05:46:29.064Z,44.20
2018-02-23T05:47:29.073Z,42.70
2018-02-23T05:48:29.083Z,42.20
2018-02-23T05:49:29.090Z,44.20
2018-02-23T05:50:29.097Z,41.80
2018-02-23T05:51:29.124Z,44.10
2018-02-23T05:52:29.139Z,43.60
2018-02-23T05:53:29.125Z,43.10
2018-02-23T05:54:29.130Z,42.70
2018-02-23T05:55:29.139Z,41.90
2018-02-23T05:56:29.197Z,43.30
2018-02-23T05:57:29.158Z,42.90
2018-02-23T05:58:29.169Z,40.00
2018-02-23T05:59:29.178Z,40.50
2018-02-23T06:00:29.194Z,42.60
2018-02-23T06:01:29.196Z,41.60
2018-02-23T06:02:29.222Z,40.00
2018-02-23T06:03:29.234Z,39.20
2018-02-23T06:04:29.220Z,40.40
2018-02-23T06:05:29.249Z,43.90
2018-02-23T06:06:29.241Z,41.10
2018-02-23T06:07:29.250Z,42.80
2018-02-23T06:08:29.254Z,42.20
2018-02-23T06:09:29.269Z,41.30
2018-02-23T06:10:29.277Z,39.80
2018-02-23T06:11:29.280Z,44.20
2018-02-23T06:12:29.291Z,40.90
2018-02-23T06:13:29.299Z,41.00
2018-02-23T06:14:29.346Z,38.70
2018-02-23T06:15:29.319Z,39.40
2018-02-23T06:16:29.339Z,39.60
2018-02-23T06:17:29.357Z,39.20
2018-02-23T06:18:29.347Z,39.90
2018-02-23T06:19:29.408Z,41.60
2018-02-23T06:20:29.359Z,42.10
2018-02-23T06:21:29.398Z,36.20
2018-02-23T06:22:29.391Z,38.10
2018-02-23T06:23:29.383Z,37.30
2018-02-23T06:24:29.434Z,37.00
2018-02-23T06:25:29.430Z,36.70
2018-02-23T06:26:29.412Z,37.20
2018-02-23T06:27:29.433Z,35.30
2018-02-23T06:28:29.431Z,38.00
2018-02-23T06:29:29.435Z,38.00
2018-02-23T06:30:29.454Z,37.60
2018-02-23T06:31:29.454Z,37.90
2018-02-23T06:32:29.476Z,36.40
2018-02-23T06:33:29.471Z,36.80
2018-02-23T06:34:29.478Z,36.60
2018-02-23T06:35:29.487Z,35.50
2018-02-23T06:36:29.518Z,35.40
2018-02-23T06:37:29.507Z,37.40
2018-02-23T06:38:29.526Z,38.70
2018-02-23T06:39:29.625Z,36.60
2018-02-23T06:40:29.536Z,34.60
2018-02-23T06:41:29.540Z,35.10
2018-02-23T06:42:29.549Z,37.80
2018-02-23T06:43:29.572Z,36.70
2018-02-23T06:44:29.570Z,33.30
2018-02-23T06:45:29.579Z,34.00
2018-02-23T06:46:29.587Z,35.80
2018-02-23T06:47:29.598Z,34.70
2018-02-23T06:48:29.616Z,34.30
2018-02-23T06:49:29.610Z,35.10
2018-02-23T06:50:29.620Z,35.10
2018-02-23T06:51:29.629Z,33.40
2018-02-23T06:52:29.663Z,35.50
2018-02-23T06:53:29.658Z,34.40
2018-02-23T06:54:29.670Z,33.70
2018-02-23T06:55:29.970Z,33.60
2018-02-23T06:56:29.693Z,36.00
2018-02-23T06:57:29.681Z,35.40
2018-02-23T06:58:29.734Z,35.10
2018-02-23T06:59:29.728Z,34.70
2018-02-23T07:00:29.707Z,33.90
2018-02-23T07:01:29.745Z,33.70
2018-02-23T07:02:29.747Z,33.30
2018-02-23T07:03:29.774Z,34.20
2018-02-23T07:04:29.740Z,34.10
2018-02-23T07:05:29.814Z,32.00
2018-02-23T07:06:29.756Z,32.50
2018-02-23T07:07:29.771Z,32.00
2018-02-23T07:08:29.778Z,39.50
2018-02-23T07:09:29.789Z,32.50
2018-02-23T07:10:29.793Z,30.80
2018-02-23T07:11:29.810Z,32.70
2018-02-23T07:12:29.812Z,31.20
2018-02-23T07:13:29.844Z,32.60
2018-02-23T07:14:29.815Z,33.50
2018-02-23T07:15:29.845Z,32.60
2018-02-23T07:16:29.856Z,30.20
2018-02-23T07:17:29.844Z,31.10
2018-02-23T07:18:29.849Z,31.40
2018-02-23T07:19:29.866Z,27.80
2018-02-23T07:20:29.868Z,31.40
2018-02-23T07:21:29.877Z,28.70
2018-02-23T07:22:29.885Z,29.60
2018-02-23T07:23:29.896Z,30.30
2018-02-23T07:24:29.903Z,29.50
2018-02-23T07:25:30.059Z,28.10
2018-02-23T07:26:29.932Z,29.30
2018-02-23T07:27:29.927Z,29.10
2018-02-23T07:28:29.937Z,28.60
2018-02-23T07:29:29.945Z,28.70
2018-02-23T07:30:29.953Z,28.60
2018-02-23T07:31:29.966Z,30.90
2018-02-23T07:32:29.975Z,29.30
2018-02-23T07:33:29.979Z,28.30
2018-02-23T07:34:29.987Z,28.80
2018-02-23T07:35:29.997Z,28.40
2018-02-23T07:36:30.010Z,27.50
2018-02-23T07:37:30.015Z,27.70
2018-02-23T07:38:30.032Z,27.30
2018-02-23T07:39:30.036Z,28.30
2018-02-23T07:40:30.040Z,30.10
2018-02-23T07:41:30.048Z,28.10
2018-02-23T07:42:30.057Z,29.30
2018-02-23T07:43:30.070Z,28.80
2018-02-23T07:44:30.076Z,28.80
2018-02-23T07:45:30.084Z,26.00
2018-02-23T07:46:30.094Z,27.20
2018-02-23T07:47:30.100Z,26.90
2018-02-23T07:48:30.109Z,25.90
2018-02-23T07:49:30.118Z,26.30
2018-02-23T07:50:30.125Z,26.50
2018-02-23T07:51:30.151Z,25.30
2018-02-23T07:52:30.147Z,24.40
2018-02-23T07:53:30.152Z,27.40
2018-02-23T07:54:30.168Z,25.40
2018-02-23T07:55:30.168Z,23.80
2018-02-23T07:56:30.175Z,24.00
2018-02-23T07:57:30.186Z,22.20
2018-02-23T07:58:30.194Z,22.20
2018-02-23T07:59:30.218Z,22.90
2018-02-23T08:00:30.211Z,23.10
2018-02-23T08:01:30.219Z,20.30
2018-02-23T08:02:30.263Z,19.90
2018-02-23T08:03:30.468Z,22.10
2018-02-23T08:04:30.247Z,21.80
2018-02-23T08:05:30.256Z,20.10
2018-02-23T08:06:30.466Z,19.00
2018-02-23T08:07:30.272Z,19.30
2018-02-23T08:08:30.307Z,18.70
2018-02-23T08:09:30.292Z,18.20
2018-02-23T08:10:30.300Z,18.30
2018-02-23T08:11:30.310Z,17.70
2018-02-23T08:12:30.316Z,16.80
2018-02-23T08:13:30.327Z,20.40
2018-02-23T08:14:30.334Z,17.50
2018-02-23T08:15:30.348Z,16.50
2018-02-23T08:16:30.350Z,16.50
2018-02-23T08:17:30.358Z,16.90
2018-02-23T08:18:30.371Z,15.80
2018-02-23T08:19:30.376Z,16.20
2018-02-23T08:20:30.385Z,17.20
2018-02-23T08:21:30.405Z,16.00
2018-02-23T08:22:30.402Z,16.20
2018-02-23T08:23:31.253Z,15.60
2018-02-23T08:24:30.420Z,16.10
2018-02-23T08:25:30.430Z,15.70
2018-02-23T08:27:30.450Z,15.20
2018-02-23T08:28:30.505Z,14.60
2018-02-23T08:29:30.495Z,15.50
2018-02-23T08:30:30.479Z,15.50
2018-02-23T08:31:30.502Z,15.20
2018-02-23T08:32:30.497Z,13.50
2018-02-23T08:33:30.801Z,13.90
2018-02-23T08:34:30.826Z,14.90
2018-02-23T08:35:30.522Z,14.00
2018-02-23T08:36:30.526Z,15.80
2018-02-23T08:37:30.535Z,13.60
2018-02-23T08:38:30.554Z,14.20
2018-02-23T08:39:30.557Z,13.60
2018-02-23T08:40:30.566Z,14.60
2018-02-23T08:41:30.577Z,14.80
2018-02-23T08:42:30.583Z,13.80
2018-02-23T08:43:30.595Z,13.70
2018-02-23T08:44:30.599Z,13.30
2018-02-23T08:45:30.611Z,14.20
2018-02-23T08:46:30.619Z,14.60
2018-02-23T08:47:30.670Z,14.10
2018-02-23T08:48:30.636Z,16.70
2018-02-23T08:49:30.646Z,17.00
2018-02-23T08:50:30.652Z,14.20
2018-02-23T08:51:30.669Z,14.10
2018-02-23T08:52:30.672Z,13.70
2018-02-23T08:53:30.683Z,13.90
2018-02-23T08:54:30.689Z,15.60
2018-02-23T08:56:30.707Z,12.30
2018-02-23T08:57:31.376Z,14.20
2018-02-23T08:58:30.832Z,13.90
2018-02-23T08:59:30.898Z,14.20
2018-02-23T09:00:30.747Z,13.30
2018-02-23T09:01:30.754Z,13.80
2018-02-23T09:02:30.762Z,14.40
2018-02-23T09:03:30.774Z,14.30
2018-02-23T09:04:30.794Z,17.00
2018-02-23T09:05:30.796Z,14.10
2018-02-23T09:06:30.803Z,13.80
2018-02-23T09:07:30.835Z,13.60
2018-02-23T09:08:30.821Z,14.40
2018-02-23T09:09:30.826Z,13.10
2018-02-23T09:10:30.839Z,14.20
2018-02-23T09:11:30.851Z,14.10
2018-02-23T09:12:30.863Z,14.40
2018-02-23T09:13:30.864Z,14.10
2018-02-23T09:14:30.875Z,15.40
2018-02-23T09:15:30.892Z,15.50
2018-02-23T09:16:30.909Z,14.90
2018-02-23T09:17:30.911Z,12.80
2018-02-23T09:18:30.913Z,13.70
2018-02-23T09:19:30.926Z,13.60
2018-02-23T09:20:30.939Z,14.00
2018-02-23T09:21:30.997Z,15.80
2018-02-23T09:22:31.035Z,14.70
2018-02-23T09:23:30.984Z,14.70
2018-02-23T09:24:30.976Z,14.40
2018-02-23T09:25:30.986Z,13.50
2018-02-23T09:26:30.990Z,15.40
2018-02-23T09:27:31.021Z,13.70
2018-02-23T09:28:31.009Z,13.20
2018-02-23T09:29:31.021Z,12.90
2018-02-23T09:30:31.034Z,14.90
2018-02-23T09:31:31.076Z,14.10
2018-02-23T09:32:31.515Z,13.70
2018-02-23T09:33:31.061Z,14.50
2018-02-23T09:34:31.066Z,15.20
2018-02-23T09:35:31.076Z,14.20
2018-02-23T09:36:31.084Z,14.20
2018-02-23T09:37:31.101Z,14.50
2018-02-23T09:38:31.105Z,15.60
2018-02-23T09:39:31.117Z,15.90
2018-02-23T09:40:31.161Z,13.60
2018-02-23T09:41:31.136Z,15.80
2018-02-23T09:42:31.140Z,16.20
2018-02-23T09:43:31.153Z,14.60
2018-02-23T09:44:31.165Z,14.60
2018-02-23T09:45:31.171Z,16.90
2018-02-23T09:46:31.180Z,12.30
2018-02-23T09:47:31.489Z,14.80
2018-02-23T09:48:32.091Z,14.90
2018-02-23T09:49:31.567Z,14.70
2018-02-23T09:50:31.212Z,14.60
2018-02-23T09:51:31.228Z,14.30
2018-02-23T09:52:31.250Z,14.30
2018-02-23T09:53:31.240Z,14.20
2018-02-23T09:54:31.254Z,13.00
2018-02-23T09:55:31.274Z,12.80
2018-02-23T09:56:31.286Z,13.40
2018-02-23T09:57:31.283Z,13.50
2018-02-23T09:58:31.288Z,12.50
2018-02-23T09:59:31.338Z,14.00
2018-02-23T10:00:31.324Z,11.80
2018-02-23T10:01:31.317Z,12.90
2018-02-23T10:02:31.325Z,12.30
2018-02-23T10:03:31.338Z,14.60
2018-02-23T10:04:31.350Z,12.00
2018-02-23T10:05:31.382Z,11.90
2018-02-23T10:06:31.361Z,11.60
2018-02-23T10:07:31.385Z,11.90
2018-02-23T10:08:31.379Z,12.30
2018-02-23T10:09:31.398Z,10.60
2018-02-23T10:10:31.425Z,13.00
2018-02-23T10:11:31.410Z,11.40
2018-02-23T10:12:31.415Z,10.80
2018-02-23T10:13:31.428Z,11.50
2018-02-23T10:14:31.485Z,10.90
2018-02-23T10:15:31.456Z,10.70
2018-02-23T10:16:31.696Z,12.10
2018-02-23T10:17:32.185Z,12.10
2018-02-23T10:18:32.289Z,10.00
2018-02-23T10:19:32.174Z,10.50
2018-02-23T10:20:31.558Z,9.10
2018-02-23T10:21:31.500Z,10.70
2018-02-23T10:22:31.514Z,10.00
2018-02-23T10:23:31.531Z,12.30
2018-02-23T10:24:31.549Z,11.00
2018-02-23T10:25:31.538Z,10.50
2018-02-23T10:26:31.568Z,10.90
2018-02-23T10:27:31.558Z,10.60
2018-02-23T10:28:31.581Z,10.30
2018-02-23T10:29:31.623Z,10.20
2018-02-23T10:30:31.595Z,9.40
2018-02-23T10:31:31.611Z,9.10
2018-02-23T10:34:31.619Z,9.60
2018-02-23T10:35:31.630Z,8.80
2018-02-23T10:36:31.641Z,10.40
2018-02-23T10:37:31.670Z,9.80
2018-02-23T10:38:31.663Z,8.90
2018-02-23T10:39:31.675Z,7.60
2018-02-23T10:40:31.681Z,8.60
2018-02-23T10:41:31.695Z,8.70
2018-02-23T10:42:31.703Z,7.70
2018-02-23T10:43:31.719Z,8.20
2018-02-23T10:44:31.720Z,8.70
2018-02-23T10:45:31.734Z,7.40
2018-02-23T10:46:31.743Z,7.90
2018-02-23T10:47:31.750Z,8.00
2018-02-23T10:48:31.759Z,8.70
2018-02-23T10:49:31.773Z,9.30
2018-02-23T10:50:31.779Z,7.80
2018-02-23T10:51:31.795Z,6.90
2018-02-23T10:52:31.799Z,7.60
2018-02-23T10:53:31.814Z,6.80
2018-02-23T10:55:31.955Z,7.30
2018-02-23T10:56:31.836Z,7.90
2018-02-23T10:57:31.847Z,8.60
2018-02-23T10:58:31.856Z,7.70
2018-02-23T10:59:31.867Z,7.40
2018-02-23T11:00:31.889Z,6.80
2018-02-23T11:01:31.888Z,9.00
2018-02-23T11:02:32.034Z,7.70
2018-02-23T11:04:32.332Z,7.20
2018-02-23T11:05:31.939Z,7.10
2018-02-23T11:06:31.937Z,7.20
2018-02-23T11:07:31.950Z,7.50
2018-02-23T11:08:31.956Z,6.70
2018-02-23T11:09:31.970Z,6.70
2018-02-23T11:10:31.975Z,6.90
2018-02-23T11:11:31.985Z,7.00
2018-02-23T11:12:32.039Z,9.20
2018-02-23T11:13:32.107Z,7.30
2018-02-23T11:14:32.020Z,7.90
2018-02-23T11:15:32.029Z,8.70
2018-02-23T11:16:32.036Z,8.60
2018-02-23T11:17:32.046Z,10.80
2018-02-23T11:18:32.060Z,7.70
2018-02-23T11:19:32.065Z,8.00
2018-02-23T11:20:32.079Z,8.60
2018-02-23T11:21:32.136Z,7.90
2018-02-23T11:22:32.111Z,9.10
2018-02-23T11:23:32.105Z,7.70
2018-02-23T11:24:32.117Z,8.20
2018-02-23T11:25:32.124Z,9.70
2018-02-23T11:26:32.134Z,8.20
2018-02-23T11:27:32.151Z,8.00
2018-02-23T11:28:32.160Z,8.00
2018-02-23T11:29:32.186Z,9.00
2018-02-23T11:30:32.235Z,8.00
2018-02-23T11:31:32.188Z,9.20
2018-02-23T11:32:32.204Z,10.30
2018-02-23T11:33:32.262Z,10.70
2018-02-23T11:34:32.313Z,8.30
2018-02-23T11:35:32.668Z,8.10
2018-02-23T11:36:32.236Z,9.60
2018-02-23T11:37:32.247Z,9.30
2018-02-23T11:38:32.277Z,9.00
2018-02-23T11:39:32.265Z,8.90
2018-02-23T11:40:32.280Z,10.50
2018-02-23T11:41:32.288Z,9.60
2018-02-23T11:42:32.302Z,8.80
2018-02-23T11:43:32.310Z,9.20
2018-02-23T11:44:32.317Z,8.70
2018-02-23T11:45:32.336Z,9.60
2018-02-23T11:46:32.338Z,10.00
2018-02-23T11:47:32.548Z,11.00
2018-02-23T11:48:32.441Z,10.70
2018-02-23T11:49:32.379Z,10.50
2018-02-23T11:50:32.379Z,12.10
2018-02-23T11:51:32.387Z,10.10
2018-02-23T11:52:32.397Z,9.30
2018-02-23T11:53:32.405Z,10.00
2018-02-23T11:54:32.416Z,10.00
2018-02-23T11:55:32.429Z,10.50
2018-02-23T11:56:32.440Z,11.10
2018-02-23T11:57:32.562Z,11.10
2018-02-23T11:58:32.458Z,12.00
2018-02-23T11:59:32.472Z,11.00
2018-02-23T12:00:32.483Z,12.70
2018-02-23T12:01:32.487Z,9.30
2018-02-23T12:02:32.621Z,10.70
2018-02-23T12:03:32.530Z,13.00
2018-02-23T12:04:32.706Z,10.70
2018-02-23T12:05:32.529Z,10.10
2018-02-23T12:06:32.538Z,10.80
2018-02-23T12:07:32.550Z,10.30
2018-02-23T12:08:32.564Z,10.50
2018-02-23T12:09:32.571Z,10.70
2018-02-23T12:10:32.583Z,11.30
2018-02-23T12:11:32.605Z,12.60
2018-02-23T12:12:32.600Z,12.00
2018-02-23T12:13:32.626Z,11.30
2018-02-23T12:14:32.622Z,12.20
2018-02-23T12:15:32.632Z,11.30
2018-02-23T12:16:32.641Z,12.70
2018-02-23T12:17:32.650Z,13.00
2018-02-23T12:18:32.664Z,11.20
2018-02-23T12:20:32.686Z,10.40
2018-02-23T12:21:32.691Z,11.80
2018-02-23T12:22:32.702Z,10.50
2018-02-23T12:23:32.716Z,12.80
2018-02-23T12:24:32.723Z,11.00
2018-02-23T12:25:32.733Z,10.90
2018-02-23T12:26:32.743Z,12.00
2018-02-23T12:27:32.783Z,12.40
2018-02-23T12:28:32.768Z,11.90
2018-02-23T12:29:32.789Z,11.30
2018-02-23T12:30:32.796Z,11.30
2018-02-23T12:31:33.512Z,10.80
2018-02-23T12:32:32.870Z,11.30
2018-02-23T12:34:32.930Z,10.60
2018-02-23T12:35:32.850Z,11.70
2018-02-23T12:36:32.850Z,11.20
2018-02-23T12:37:32.862Z,11.20
2018-02-23T12:38:32.871Z,11.50
2018-02-23T12:39:32.882Z,12.10
2018-02-23T12:40:32.889Z,11.90
2018-02-23T12:41:32.899Z,12.10
2018-02-23T12:42:32.943Z,11.10
2018-02-23T12:43:32.919Z,12.70
2018-02-23T12:44:32.983Z,11.60
2018-02-23T12:45:32.943Z,11.50
2018-02-23T12:46:32.953Z,10.30
2018-02-23T12:47:32.964Z,10.70
2018-02-23T12:48:32.978Z,11.80
2018-02-23T12:49:32.982Z,10.90
2018-02-23T12:50:32.994Z,12.50
2018-02-23T12:51:33.495Z,9.80
2018-02-23T12:52:33.028Z,11.90
2018-02-23T12:53:33.288Z,13.00
2018-02-23T12:54:33.033Z,10.10
2018-02-23T12:55:33.198Z,13.50
2018-02-23T12:56:33.290Z,12.50
2018-02-23T12:57:33.064Z,13.20
2018-02-23T12:58:33.082Z,10.00
2018-02-23T12:59:33.101Z,11.00
2018-02-23T13:00:33.105Z,11.90
2018-02-23T13:01:33.120Z,10.60
2018-02-23T13:02:33.120Z,12.50